sensor_id;sensor_type;location;lat;lon;timestamp;pressure;altitude;pressure_sealevel;temperature
34125;BMP280;20110;53.120;5.786;2023-05-07T00:00:38;101737.06;;;20.04
34125;BMP280;20110;53.120;5.786;2023-05-07T00:03:04;101752.81;;;20.08
34125;BMP280;20110;53.120;5.786;2023-05-07T00:05:30;101786.63;;;20.26
34125;BMP280;20110;53.120;5.786;2023-05-07T00:07:56;101774.28;;;20.23
34125;BMP280;20110;53.120;5.786;2023-05-07T00:10:22;101781.00;;;20.32
34125;BMP280;20110;53.120;5.786;2023-05-07T00:12:48;101745.13;;;20.04
34125;BMP280;20110;53.120;5.786;2023-05-07T00:15:14;101778.28;;;20.32
34125;BMP280;20110;53.120;5.786;2023-05-07T00:17:40;101777.97;;;20.28
34125;BMP280;20110;53.120;5.786;2023-05-07T00:20:06;101743.44;;;19.99
34125;BMP280;20110;53.120;5.786;2023-05-07T00:22:32;101777.66;;;20.24
34125;BMP280;20110;53.120;5.786;2023-05-07T00:24:59;101788.44;;;20.24
34125;BMP280;20110;53.120;5.786;2023-05-07T00:27:25;101782.44;;;20.16
34125;BMP280;20110;53.120;5.786;2023-05-07T00:29:50;101787.44;;;20.19
34125;BMP280;20110;53.120;5.786;2023-05-07T00:32:16;101709.63;;;19.64
34125;BMP280;20110;53.120;5.786;2023-05-07T00:34:43;101785.59;;;20.22
34125;BMP280;20110;53.120;5.786;2023-05-07T00:37:09;101784.19;;;20.21
34125;BMP280;20110;53.120;5.786;2023-05-07T00:39:35;101741.19;;;19.88
34125;BMP280;20110;53.120;5.786;2023-05-07T00:42:02;101767.44;;;20.05
34125;BMP280;20110;53.120;5.786;2023-05-07T00:44:29;101709.47;;;19.62
34125;BMP280;20110;53.120;5.786;2023-05-07T00:47:01;101758.06;;;19.89
34125;BMP280;20110;53.120;5.786;2023-05-07T00:49:39;101782.03;;;20.02
34125;BMP280;20110;53.120;5.786;2023-05-07T00:52:09;101759.38;;;19.88
34125;BMP280;20110;53.120;5.786;2023-05-07T00:54:35;101673.28;;;19.30
34125;BMP280;20110;53.120;5.786;2023-05-07T00:57:03;101690.97;;;19.41
34125;BMP280;20110;53.120;5.786;2023-05-07T00:59:33;101754.50;;;19.86
34125;BMP280;20110;53.120;5.786;2023-05-07T01:01:59;101767.50;;;19.97
34125;BMP280;20110;53.120;5.786;2023-05-07T01:04:26;101772.91;;;19.97
34125;BMP280;20110;53.120;5.786;2023-05-07T01:06:55;101762.50;;;19.94
34125;BMP280;20110;53.120;5.786;2023-05-07T01:09:23;101777.06;;;19.98
34125;BMP280;20110;53.120;5.786;2023-05-07T01:11:50;101724.69;;;19.67
34125;BMP280;20110;53.120;5.786;2023-05-07T01:14:19;101766.47;;;19.93
34125;BMP280;20110;53.120;5.786;2023-05-07T01:16:47;101763.53;;;19.81
34125;BMP280;20110;53.120;5.786;2023-05-07T01:19:16;101763.31;;;19.87
34125;BMP280;20110;53.120;5.786;2023-05-07T01:21:47;101755.03;;;19.85
34125;BMP280;20110;53.120;5.786;2023-05-07T01:24:14;101733.31;;;19.65
34125;BMP280;20110;53.120;5.786;2023-05-07T01:26:42;101759.38;;;19.88
34125;BMP280;20110;53.120;5.786;2023-05-07T01:29:08;101693.50;;;19.39
34125;BMP280;20110;53.120;5.786;2023-05-07T01:31:35;101693.66;;;19.41
34125;BMP280;20110;53.120;5.786;2023-05-07T01:34:03;101753.16;;;19.78
34125;BMP280;20110;53.120;5.786;2023-05-07T01:36:31;101726.22;;;19.53
34125;BMP280;20110;53.120;5.786;2023-05-07T01:38:58;101705.72;;;19.40
34125;BMP280;20110;53.120;5.786;2023-05-07T01:41:24;101757.50;;;19.73
34125;BMP280;20110;53.120;5.786;2023-05-07T01:43:52;101722.13;;;19.52
34125;BMP280;20110;53.120;5.786;2023-05-07T01:46:19;101755.91;;;19.70
34125;BMP280;20110;53.120;5.786;2023-05-07T01:48:45;101733.06;;;19.54
34125;BMP280;20110;53.120;5.786;2023-05-07T01:51:12;101764.16;;;19.72
34125;BMP280;20110;53.120;5.786;2023-05-07T01:53:39;101752.50;;;19.69
34125;BMP280;20110;53.120;5.786;2023-05-07T01:56:06;101745.53;;;19.66
34125;BMP280;20110;53.120;5.786;2023-05-07T01:58:32;101686.31;;;19.17
34125;BMP280;20110;53.120;5.786;2023-05-07T02:00:59;101734.16;;;19.51
34125;BMP280;20110;53.120;5.786;2023-05-07T02:03:25;101758.69;;;19.62
34125;BMP280;20110;53.120;5.786;2023-05-07T02:05:51;101756.22;;;19.57
34125;BMP280;20110;53.120;5.786;2023-05-07T02:08:17;101760.19;;;19.56
34125;BMP280;20110;53.120;5.786;2023-05-07T02:10:43;101747.47;;;19.49
34125;BMP280;20110;53.120;5.786;2023-05-07T02:13:08;101709.84;;;19.16
34125;BMP280;20110;53.120;5.786;2023-05-07T02:15:34;101752.38;;;19.43
34125;BMP280;20110;53.120;5.786;2023-05-07T02:18:08;101763.53;;;19.39
34125;BMP280;20110;53.120;5.786;2023-05-07T02:20:35;101760.63;;;19.45
34125;BMP280;20110;53.120;5.786;2023-05-07T02:23:01;101663.31;;;18.74
34125;BMP280;20110;53.120;5.786;2023-05-07T02:25:26;101734.78;;;19.17
34125;BMP280;20110;53.120;5.786;2023-05-07T02:27:52;101721.56;;;19.11
34125;BMP280;20110;53.120;5.786;2023-05-07T02:30:18;101747.44;;;19.32
34125;BMP280;20110;53.120;5.786;2023-05-07T02:32:46;101740.69;;;19.23
34125;BMP280;20110;53.120;5.786;2023-05-07T02:35:12;101746.72;;;19.31
34125;BMP280;20110;53.120;5.786;2023-05-07T02:37:38;101754.97;;;19.33
34125;BMP280;20110;53.120;5.786;2023-05-07T02:40:04;101754.63;;;19.29
34125;BMP280;20110;53.120;5.786;2023-05-07T02:42:30;101769.06;;;19.41
34125;BMP280;20110;53.120;5.786;2023-05-07T02:44:56;101759.97;;;19.37
34125;BMP280;20110;53.120;5.786;2023-05-07T02:47:22;101776.28;;;19.39
34125;BMP280;20110;53.120;5.786;2023-05-07T02:49:48;101768.94;;;19.39
34125;BMP280;20110;53.120;5.786;2023-05-07T02:52:14;101769.47;;;19.38
34125;BMP280;20110;53.120;5.786;2023-05-07T02:54:39;101771.84;;;19.34
34125;BMP280;20110;53.120;5.786;2023-05-07T02:57:05;101779.94;;;19.34
34125;BMP280;20110;53.120;5.786;2023-05-07T02:59:31;101778.47;;;19.33
34125;BMP280;20110;53.120;5.786;2023-05-07T03:01:57;101712.88;;;18.88
34125;BMP280;20110;53.120;5.786;2023-05-07T03:04:22;101740.63;;;19.06
34125;BMP280;20110;53.120;5.786;2023-05-07T03:06:48;101728.41;;;19.05
34125;BMP280;20110;53.120;5.786;2023-05-07T03:09:14;101760.41;;;19.25
34125;BMP280;20110;53.120;5.786;2023-05-07T03:11:40;101770.47;;;19.25
34125;BMP280;20110;53.120;5.786;2023-05-07T03:14:06;101716.53;;;18.83
34125;BMP280;20110;53.120;5.786;2023-05-07T03:16:31;101725.16;;;18.81
34125;BMP280;20110;53.120;5.786;2023-05-07T03:18:57;101709.25;;;18.68
34125;BMP280;20110;53.120;5.786;2023-05-07T03:21:23;101747.16;;;18.95
34125;BMP280;20110;53.120;5.786;2023-05-07T03:23:49;101724.47;;;18.73
34125;BMP280;20110;53.120;5.786;2023-05-07T03:26:15;101716.97;;;18.64
34125;BMP280;20110;53.120;5.786;2023-05-07T03:28:40;101736.34;;;18.70
34125;BMP280;20110;53.120;5.786;2023-05-07T03:31:06;101754.59;;;18.79
34125;BMP280;20110;53.120;5.786;2023-05-07T03:33:35;101764.75;;;18.88
34125;BMP280;20110;53.120;5.786;2023-05-07T03:36:04;101773.03;;;18.91
34125;BMP280;20110;53.120;5.786;2023-05-07T03:38:31;101733.66;;;18.63
34125;BMP280;20110;53.120;5.786;2023-05-07T03:40:57;101759.59;;;18.75
34125;BMP280;20110;53.120;5.786;2023-05-07T03:43:23;101765.13;;;18.85
34125;BMP280;20110;53.120;5.786;2023-05-07T03:45:48;101758.03;;;18.72
34125;BMP280;20110;53.120;5.786;2023-05-07T03:48:14;101771.78;;;18.84
34125;BMP280;20110;53.120;5.786;2023-05-07T03:50:40;101755.34;;;18.72
34125;BMP280;20110;53.120;5.786;2023-05-07T03:53:06;101761.56;;;18.82
34125;BMP280;20110;53.120;5.786;2023-05-07T03:55:32;101735.28;;;18.66
34125;BMP280;20110;53.120;5.786;2023-05-07T03:57:57;101779.81;;;18.92
34125;BMP280;20110;53.120;5.786;2023-05-07T04:00:23;101783.06;;;18.90
34125;BMP280;20110;53.120;5.786;2023-05-07T04:02:49;101782.88;;;18.88
34125;BMP280;20110;53.120;5.786;2023-05-07T04:05:15;101778.75;;;18.87
34125;BMP280;20110;53.120;5.786;2023-05-07T04:07:41;101745.16;;;18.56
34125;BMP280;20110;53.120;5.786;2023-05-07T04:10:07;101785.78;;;18.82
34125;BMP280;20110;53.120;5.786;2023-05-07T04:12:33;101775.41;;;18.79
34125;BMP280;20110;53.120;5.786;2023-05-07T04:14:59;101771.31;;;18.70
34125;BMP280;20110;53.120;5.786;2023-05-07T04:17:25;101792.44;;;18.81
34125;BMP280;20110;53.120;5.786;2023-05-07T04:19:51;101753.09;;;18.54
34125;BMP280;20110;53.120;5.786;2023-05-07T04:22:16;101800.66;;;18.83
34125;BMP280;20110;53.120;5.786;2023-05-07T04:24:42;101743.72;;;18.55
34125;BMP280;20110;53.120;5.786;2023-05-07T04:27:08;101795.78;;;18.89
34125;BMP280;20110;53.120;5.786;2023-05-07T04:29:34;101765.94;;;18.70
34125;BMP280;20110;53.120;5.786;2023-05-07T04:31:59;101800.41;;;18.97
34125;BMP280;20110;53.120;5.786;2023-05-07T04:34:25;101775.56;;;18.81
34125;BMP280;20110;53.120;5.786;2023-05-07T04:36:51;101800.78;;;19.01
34125;BMP280;20110;53.120;5.786;2023-05-07T04:39:17;101764.50;;;18.69
34125;BMP280;20110;53.120;5.786;2023-05-07T04:41:43;101809.91;;;19.05
34125;BMP280;20110;53.120;5.786;2023-05-07T04:44:09;101782.31;;;18.89
34125;BMP280;20110;53.120;5.786;2023-05-07T04:46:34;101798.25;;;19.03
34125;BMP280;20110;53.120;5.786;2023-05-07T04:49:00;101793.75;;;19.05
34125;BMP280;20110;53.120;5.786;2023-05-07T04:51:26;101814.50;;;19.20
34125;BMP280;20110;53.120;5.786;2023-05-07T04:53:53;101823.25;;;19.20
34125;BMP280;20110;53.120;5.786;2023-05-07T04:56:19;101826.31;;;19.24
34125;BMP280;20110;53.120;5.786;2023-05-07T04:58:45;101817.00;;;19.18
34125;BMP280;20110;53.120;5.786;2023-05-07T05:01:11;101818.22;;;19.24
34125;BMP280;20110;53.120;5.786;2023-05-07T05:03:37;101828.22;;;19.32
34125;BMP280;20110;53.120;5.786;2023-05-07T05:06:05;101720.94;;;18.63
34125;BMP280;20110;53.120;5.786;2023-05-07T05:08:31;101826.63;;;19.28
34125;BMP280;20110;53.120;5.786;2023-05-07T05:10:56;101803.38;;;19.16
34125;BMP280;20110;53.120;5.786;2023-05-07T05:13:22;101783.38;;;19.02
34125;BMP280;20110;53.120;5.786;2023-05-07T05:15:48;101821.63;;;19.25
34125;BMP280;20110;53.120;5.786;2023-05-07T05:18:14;101838.47;;;19.33
34125;BMP280;20110;53.120;5.786;2023-05-07T05:20:40;101833.78;;;19.34
34125;BMP280;20110;53.120;5.786;2023-05-07T05:23:07;101794.78;;;19.10
34125;BMP280;20110;53.120;5.786;2023-05-07T05:25:33;101832.69;;;19.37
34125;BMP280;20110;53.120;5.786;2023-05-07T05:27:58;101841.63;;;19.47
34125;BMP280;20110;53.120;5.786;2023-05-07T05:30:24;101841.75;;;19.49
34125;BMP280;20110;53.120;5.786;2023-05-07T05:32:50;101826.88;;;19.48
34125;BMP280;20110;53.120;5.786;2023-05-07T05:35:16;101832.59;;;19.52
34125;BMP280;20110;53.120;5.786;2023-05-07T05:37:42;101794.69;;;19.25
34125;BMP280;20110;53.120;5.786;2023-05-07T05:40:08;101840.31;;;19.55
34125;BMP280;20110;53.120;5.786;2023-05-07T05:42:34;101831.31;;;19.53
34125;BMP280;20110;53.120;5.786;2023-05-07T05:45:00;101832.94;;;19.56
34125;BMP280;20110;53.120;5.786;2023-05-07T05:47:25;101833.66;;;19.56
34125;BMP280;20110;53.120;5.786;2023-05-07T05:49:51;101837.22;;;19.59
34125;BMP280;20110;53.120;5.786;2023-05-07T05:52:17;101834.66;;;19.61
34125;BMP280;20110;53.120;5.786;2023-05-07T05:54:43;101844.13;;;19.69
34125;BMP280;20110;53.120;5.786;2023-05-07T05:57:08;101833.94;;;19.60
34125;BMP280;20110;53.120;5.786;2023-05-07T05:59:35;101839.31;;;19.68
34125;BMP280;20110;53.120;5.786;2023-05-07T06:02:00;101850.31;;;19.87
34125;BMP280;20110;53.120;5.786;2023-05-07T06:04:26;101840.44;;;19.82
34125;BMP280;20110;53.120;5.786;2023-05-07T06:06:52;101814.66;;;19.72
34125;BMP280;20110;53.120;5.786;2023-05-07T06:09:18;101861.91;;;20.15
34125;BMP280;20110;53.120;5.786;2023-05-07T06:11:44;101844.72;;;20.10
34125;BMP280;20110;53.120;5.786;2023-05-07T06:14:09;101849.47;;;20.19
34125;BMP280;20110;53.120;5.786;2023-05-07T06:16:35;101857.56;;;20.19
34125;BMP280;20110;53.120;5.786;2023-05-07T06:19:03;101854.47;;;20.23
34125;BMP280;20110;53.120;5.786;2023-05-07T06:21:29;101829.63;;;20.07
34125;BMP280;20110;53.120;5.786;2023-05-07T06:23:55;101858.69;;;20.33
34125;BMP280;20110;53.120;5.786;2023-05-07T06:26:21;101872.34;;;20.52
34125;BMP280;20110;53.120;5.786;2023-05-07T06:28:47;101881.59;;;20.59
34125;BMP280;20110;53.120;5.786;2023-05-07T06:31:20;101876.19;;;20.59
34125;BMP280;20110;53.120;5.786;2023-05-07T06:33:46;101871.84;;;20.64
34125;BMP280;20110;53.120;5.786;2023-05-07T06:36:12;101859.38;;;20.68
34125;BMP280;20110;53.120;5.786;2023-05-07T06:38:38;101856.91;;;20.63
34125;BMP280;20110;53.120;5.786;2023-05-07T06:41:06;101871.09;;;20.80
34125;BMP280;20110;53.120;5.786;2023-05-07T06:43:33;101885.28;;;20.98
34125;BMP280;20110;53.120;5.786;2023-05-07T06:45:58;101896.34;;;21.19
34125;BMP280;20110;53.120;5.786;2023-05-07T06:48:24;101884.66;;;21.44
34125;BMP280;20110;53.120;5.786;2023-05-07T06:50:50;101886.28;;;21.66
34125;BMP280;20110;53.120;5.786;2023-05-07T06:53:16;101893.16;;;21.86
34125;BMP280;20110;53.120;5.786;2023-05-07T06:55:42;101894.63;;;22.06
34125;BMP280;20110;53.120;5.786;2023-05-07T06:58:08;101860.28;;;21.99
34125;BMP280;20110;53.120;5.786;2023-05-07T07:00:33;101863.56;;;22.17
34125;BMP280;20110;53.120;5.786;2023-05-07T07:03:00;101898.91;;;22.48
34125;BMP280;20110;53.120;5.786;2023-05-07T07:05:26;101886.91;;;22.41
34125;BMP280;20110;53.120;5.786;2023-05-07T07:07:52;101901.88;;;22.61
34125;BMP280;20110;53.120;5.786;2023-05-07T07:10:22;101907.13;;;22.79
34125;BMP280;20110;53.120;5.786;2023-05-07T07:12:49;101895.44;;;22.76
34125;BMP280;20110;53.120;5.786;2023-05-07T07:15:15;101902.72;;;22.83
34125;BMP280;20110;53.120;5.786;2023-05-07T07:17:41;101851.88;;;22.53
34125;BMP280;20110;53.120;5.786;2023-05-07T07:20:07;101901.59;;;23.08
34125;BMP280;20110;53.120;5.786;2023-05-07T07:22:33;101856.63;;;22.93
34125;BMP280;20110;53.120;5.786;2023-05-07T07:24:59;101848.59;;;23.04
34125;BMP280;20110;53.120;5.786;2023-05-07T07:27:25;101906.31;;;23.47
34125;BMP280;20110;53.120;5.786;2023-05-07T07:29:51;101861.78;;;23.20
34125;BMP280;20110;53.120;5.786;2023-05-07T07:32:17;101882.66;;;23.38
34125;BMP280;20110;53.120;5.786;2023-05-07T07:34:43;101896.34;;;23.40
34125;BMP280;20110;53.120;5.786;2023-05-07T07:37:09;101830.44;;;22.76
34125;BMP280;20110;53.120;5.786;2023-05-07T07:39:35;101889.78;;;23.13
34125;BMP280;20110;53.120;5.786;2023-05-07T07:42:03;101892.31;;;23.20
34125;BMP280;20110;53.120;5.786;2023-05-07T07:44:29;101879.31;;;23.19
34125;BMP280;20110;53.120;5.786;2023-05-07T07:46:55;101808.50;;;22.72
34125;BMP280;20110;53.120;5.786;2023-05-07T07:49:21;101883.81;;;23.35
34125;BMP280;20110;53.120;5.786;2023-05-07T07:51:47;101882.19;;;23.42
34125;BMP280;20110;53.120;5.786;2023-05-07T07:54:12;101882.28;;;23.54
34125;BMP280;20110;53.120;5.786;2023-05-07T07:56:38;101883.84;;;23.57
34125;BMP280;20110;53.120;5.786;2023-05-07T07:59:04;101908.59;;;23.72
34125;BMP280;20110;53.120;5.786;2023-05-07T08:01:31;101900.22;;;23.68
34125;BMP280;20110;53.120;5.786;2023-05-07T08:03:56;101847.63;;;23.31
34125;BMP280;20110;53.120;5.786;2023-05-07T08:06:25;101894.66;;;23.66
34125;BMP280;20110;53.120;5.786;2023-05-07T08:08:52;101863.16;;;23.30
34125;BMP280;20110;53.120;5.786;2023-05-07T08:11:18;101882.84;;;23.31
34125;BMP280;20110;53.120;5.786;2023-05-07T08:13:44;101904.09;;;23.34
34125;BMP280;20110;53.120;5.786;2023-05-07T08:16:10;101909.56;;;23.56
34125;BMP280;20110;53.120;5.786;2023-05-07T08:18:36;101905.44;;;23.97
34125;BMP280;20110;53.120;5.786;2023-05-07T08:21:02;101905.84;;;24.48
34125;BMP280;20110;53.120;5.786;2023-05-07T08:23:28;101898.59;;;24.97
34125;BMP280;20110;53.120;5.786;2023-05-07T08:25:54;101896.78;;;25.36
34125;BMP280;20110;53.120;5.786;2023-05-07T08:28:20;101875.22;;;25.63
34125;BMP280;20110;53.120;5.786;2023-05-07T08:30:47;101895.53;;;25.99
34125;BMP280;20110;53.120;5.786;2023-05-07T08:33:12;101904.72;;;25.92
34125;BMP280;20110;53.120;5.786;2023-05-07T08:35:38;101906.75;;;25.80
34125;BMP280;20110;53.120;5.786;2023-05-07T08:38:04;101896.53;;;25.55
34125;BMP280;20110;53.120;5.786;2023-05-07T08:40:37;101899.97;;;25.44
34125;BMP280;20110;53.120;5.786;2023-05-07T08:43:06;101917.81;;;25.47
34125;BMP280;20110;53.120;5.786;2023-05-07T08:45:34;101891.13;;;25.32
34125;BMP280;20110;53.120;5.786;2023-05-07T08:48:03;101887.13;;;25.21
34125;BMP280;20110;53.120;5.786;2023-05-07T08:50:30;101894.09;;;25.24
34125;BMP280;20110;53.120;5.786;2023-05-07T08:52:57;101901.75;;;25.51
34125;BMP280;20110;53.120;5.786;2023-05-07T08:55:24;101910.34;;;25.71
34125;BMP280;20110;53.120;5.786;2023-05-07T08:57:50;101916.44;;;25.83
34125;BMP280;20110;53.120;5.786;2023-05-07T09:00:18;101905.81;;;25.76
34125;BMP280;20110;53.120;5.786;2023-05-07T09:02:44;101864.34;;;25.63
34125;BMP280;20110;53.120;5.786;2023-05-07T09:05:10;101914.13;;;26.03
34125;BMP280;20110;53.120;5.786;2023-05-07T09:07:36;101908.41;;;26.10
34125;BMP280;20110;53.120;5.786;2023-05-07T09:10:04;101926.50;;;26.17
34125;BMP280;20110;53.120;5.786;2023-05-07T09:12:31;101889.09;;;25.93
34125;BMP280;20110;53.120;5.786;2023-05-07T09:14:58;101913.69;;;26.20
34125;BMP280;20110;53.120;5.786;2023-05-07T09:17:24;101843.81;;;25.99
34125;BMP280;20110;53.120;5.786;2023-05-07T09:19:50;101864.81;;;26.36
34125;BMP280;20110;53.120;5.786;2023-05-07T09:22:16;101939.34;;;27.08
34125;BMP280;20110;53.120;5.786;2023-05-07T09:24:48;101906.09;;;27.26
34125;BMP280;20110;53.120;5.786;2023-05-07T09:27:14;101933.72;;;27.61
34125;BMP280;20110;53.120;5.786;2023-05-07T09:29:41;101914.13;;;27.65
34125;BMP280;20110;53.120;5.786;2023-05-07T09:32:08;101922.88;;;27.77
34125;BMP280;20110;53.120;5.786;2023-05-07T09:34:35;101933.28;;;27.96
34125;BMP280;20110;53.120;5.786;2023-05-07T09:37:02;101914.31;;;28.14
34125;BMP280;20110;53.120;5.786;2023-05-07T09:39:49;101925.97;;;28.30
34125;BMP280;20110;53.120;5.786;2023-05-07T09:42:15;101926.38;;;28.71
34125;BMP280;20110;53.120;5.786;2023-05-07T09:44:43;101916.41;;;28.93
34125;BMP280;20110;53.120;5.786;2023-05-07T09:47:11;101892.41;;;28.61
34125;BMP280;20110;53.120;5.786;2023-05-07T09:49:39;101931.31;;;28.75
34125;BMP280;20110;53.120;5.786;2023-05-07T09:52:07;101932.19;;;28.79
34125;BMP280;20110;53.120;5.786;2023-05-07T09:54:36;101930.91;;;28.98
34125;BMP280;20110;53.120;5.786;2023-05-07T09:57:05;101919.91;;;28.80
34125;BMP280;20110;53.120;5.786;2023-05-07T09:59:32;101898.72;;;28.63
34125;BMP280;20110;53.120;5.786;2023-05-07T10:02:00;101934.50;;;29.02
34125;BMP280;20110;53.120;5.786;2023-05-07T10:04:27;101934.19;;;28.94
34125;BMP280;20110;53.120;5.786;2023-05-07T10:06:54;101945.13;;;28.94
34125;BMP280;20110;53.120;5.786;2023-05-07T10:09:21;101939.69;;;28.79
34125;BMP280;20110;53.120;5.786;2023-05-07T10:11:52;101940.19;;;28.91
34125;BMP280;20110;53.120;5.786;2023-05-07T10:14:21;101941.00;;;29.11
34125;BMP280;20110;53.120;5.786;2023-05-07T10:16:48;101942.88;;;29.40
34125;BMP280;20110;53.120;5.786;2023-05-07T10:19:15;101937.94;;;29.54
34125;BMP280;20110;53.120;5.786;2023-05-07T10:21:53;101934.97;;;29.48
34125;BMP280;20110;53.120;5.786;2023-05-07T10:24:27;101922.44;;;29.78
34125;BMP280;20110;53.120;5.786;2023-05-07T10:26:56;101929.75;;;30.48
34125;BMP280;20110;53.120;5.786;2023-05-07T10:29:39;101920.84;;;30.89
34125;BMP280;20110;53.120;5.786;2023-05-07T10:32:40;101870.75;;;30.67
34125;BMP280;20110;53.120;5.786;2023-05-07T10:35:17;101927.53;;;31.06
34125;BMP280;20110;53.120;5.786;2023-05-07T10:37:46;101935.84;;;31.08
34125;BMP280;20110;53.120;5.786;2023-05-07T10:40:13;101893.41;;;30.89
34125;BMP280;20110;53.120;5.786;2023-05-07T10:42:56;101933.78;;;31.30
34125;BMP280;20110;53.120;5.786;2023-05-07T10:45:23;101942.41;;;31.66
34125;BMP280;20110;53.120;5.786;2023-05-07T10:48:15;101926.72;;;31.94
34125;BMP280;20110;53.120;5.786;2023-05-07T10:50:45;101945.38;;;32.49
34125;BMP280;20110;53.120;5.786;2023-05-07T10:58:44;101922.22;;;33.18
34125;BMP280;20110;53.120;5.786;2023-05-07T11:01:10;101950.66;;;33.58
34125;BMP280;20110;53.120;5.786;2023-05-07T11:04:14;101949.34;;;33.99
34125;BMP280;20110;53.120;5.786;2023-05-07T11:06:40;101932.69;;;33.91
34125;BMP280;20110;53.120;5.786;2023-05-07T11:09:06;101951.25;;;34.29
34125;BMP280;20110;53.120;5.786;2023-05-07T11:11:48;101943.34;;;34.49
34125;BMP280;20110;53.120;5.786;2023-05-07T11:14:42;101942.59;;;34.44
34125;BMP280;20110;53.120;5.786;2023-05-07T11:17:10;101900.97;;;34.30
34125;BMP280;20110;53.120;5.786;2023-05-07T11:19:55;101936.94;;;34.82
34125;BMP280;20110;53.120;5.786;2023-05-07T11:25:00;101939.66;;;34.34
34125;BMP280;20110;53.120;5.786;2023-05-07T11:27:27;101933.13;;;34.15
34125;BMP280;20110;53.120;5.786;2023-05-07T11:29:55;101923.47;;;33.79
34125;BMP280;20110;53.120;5.786;2023-05-07T11:32:31;101941.91;;;33.70
34125;BMP280;20110;53.120;5.786;2023-05-07T11:35:00;101942.03;;;33.44
34125;BMP280;20110;53.120;5.786;2023-05-07T11:37:28;101958.25;;;33.28
34125;BMP280;20110;53.120;5.786;2023-05-07T11:40:07;101953.16;;;32.87
34125;BMP280;20110;53.120;5.786;2023-05-07T11:42:37;101952.34;;;32.52
34125;BMP280;20110;53.120;5.786;2023-05-07T11:45:06;101958.03;;;32.35
34125;BMP280;20110;53.120;5.786;2023-05-07T11:47:33;101949.06;;;32.32
34125;BMP280;20110;53.120;5.786;2023-05-07T11:50:05;101949.81;;;32.90
34125;BMP280;20110;53.120;5.786;2023-05-07T11:52:31;101890.06;;;32.95
34125;BMP280;20110;53.120;5.786;2023-05-07T11:54:59;101952.25;;;33.70
34125;BMP280;20110;53.120;5.786;2023-05-07T11:57:29;101958.38;;;34.02
34125;BMP280;20110;53.120;5.786;2023-05-07T11:59:59;101950.78;;;34.42
34125;BMP280;20110;53.120;5.786;2023-05-07T12:02:27;101942.13;;;35.08
34125;BMP280;20110;53.120;5.786;2023-05-07T12:04:54;101935.38;;;35.81
34125;BMP280;20110;53.120;5.786;2023-05-07T12:07:24;101895.56;;;35.38
34125;BMP280;20110;53.120;5.786;2023-05-07T12:09:53;101906.78;;;35.50
34125;BMP280;20110;53.120;5.786;2023-05-07T12:12:19;101933.31;;;35.81
34125;BMP280;20110;53.120;5.786;2023-05-07T12:14:45;101872.16;;;35.45
34125;BMP280;20110;53.120;5.786;2023-05-07T12:17:19;101909.13;;;35.80
34125;BMP280;20110;53.120;5.786;2023-05-07T12:19:45;101953.91;;;36.36
34125;BMP280;20110;53.120;5.786;2023-05-07T12:22:12;101949.84;;;36.54
34125;BMP280;20110;53.120;5.786;2023-05-07T12:24:57;101971.97;;;36.54
34125;BMP280;20110;53.120;5.786;2023-05-07T12:27:25;101967.72;;;36.38
34125;BMP280;20110;53.120;5.786;2023-05-07T12:29:52;101896.59;;;35.69
34125;BMP280;20110;53.120;5.786;2023-05-07T12:32:21;101960.47;;;36.01
34125;BMP280;20110;53.120;5.786;2023-05-07T12:34:51;101940.19;;;35.76
34125;BMP280;20110;53.120;5.786;2023-05-07T12:37:26;101903.38;;;35.58
34125;BMP280;20110;53.120;5.786;2023-05-07T12:40:11;101961.59;;;36.48
34125;BMP280;20110;53.120;5.786;2023-05-07T12:42:40;101954.81;;;36.77
34125;BMP280;20110;53.120;5.786;2023-05-07T12:45:15;101960.91;;;36.52
34125;BMP280;20110;53.120;5.786;2023-05-07T12:47:46;101934.25;;;36.06
34125;BMP280;20110;53.120;5.786;2023-05-07T12:50:16;101963.13;;;35.89
34125;BMP280;20110;53.120;5.786;2023-05-07T12:52:52;101956.56;;;35.58
34125;BMP280;20110;53.120;5.786;2023-05-07T12:55:18;101878.72;;;35.16
34125;BMP280;20110;53.120;5.786;2023-05-07T12:57:49;101944.94;;;35.70
34125;BMP280;20110;53.120;5.786;2023-05-07T13:00:36;101948.81;;;35.47
34125;BMP280;20110;53.120;5.786;2023-05-07T13:03:02;101921.75;;;34.81
34125;BMP280;20110;53.120;5.786;2023-05-07T13:05:31;101949.16;;;34.69
34125;BMP280;20110;53.120;5.786;2023-05-07T13:07:57;101933.09;;;34.13
34125;BMP280;20110;53.120;5.786;2023-05-07T13:10:24;101954.97;;;34.03
34125;BMP280;20110;53.120;5.786;2023-05-07T13:12:51;101954.53;;;33.81
34125;BMP280;20110;53.120;5.786;2023-05-07T13:15:17;101954.97;;;33.36
34125;BMP280;20110;53.120;5.786;2023-05-07T13:17:44;101937.41;;;32.89
34125;BMP280;20110;53.120;5.786;2023-05-07T13:20:10;101929.91;;;32.64
34125;BMP280;20110;53.120;5.786;2023-05-07T13:22:37;101960.22;;;32.38
34125;BMP280;20110;53.120;5.786;2023-05-07T13:25:03;101940.53;;;31.96
34125;BMP280;20110;53.120;5.786;2023-05-07T13:27:29;101958.00;;;31.83
34125;BMP280;20110;53.120;5.786;2023-05-07T13:29:57;101929.09;;;31.57
34125;BMP280;20110;53.120;5.786;2023-05-07T13:32:23;101955.91;;;31.82
34125;BMP280;20110;53.120;5.786;2023-05-07T13:34:48;101945.44;;;32.00
34125;BMP280;20110;53.120;5.786;2023-05-07T13:37:15;101932.47;;;31.79
34125;BMP280;20110;53.120;5.786;2023-05-07T13:39:41;101872.44;;;31.22
34125;BMP280;20110;53.120;5.786;2023-05-07T13:42:07;101946.38;;;31.61
34125;BMP280;20110;53.120;5.786;2023-05-07T13:44:32;101885.00;;;31.29
34125;BMP280;20110;53.120;5.786;2023-05-07T13:46:58;101930.91;;;31.95
34125;BMP280;20110;53.120;5.786;2023-05-07T13:49:24;101891.19;;;32.00
34125;BMP280;20110;53.120;5.786;2023-05-07T13:51:50;101855.19;;;31.90
34125;BMP280;20110;53.120;5.786;2023-05-07T13:54:16;101867.97;;;32.06
34125;BMP280;20110;53.120;5.786;2023-05-07T13:56:42;101941.97;;;32.79
34125;BMP280;20110;53.120;5.786;2023-05-07T13:59:08;101938.88;;;32.92
34125;BMP280;20110;53.120;5.786;2023-05-07T14:01:33;101930.41;;;32.84
34125;BMP280;20110;53.120;5.786;2023-05-07T14:03:59;101889.56;;;32.73
34125;BMP280;20110;53.120;5.786;2023-05-07T14:06:26;101914.72;;;33.21